sensor_id;sensor_type;location;lat;lon;timestamp;pressure;altitude;pressure_sealevel;temperature;humidity
9325;BME280;4701;51.566;6.776;2023-02-19T07:02:45;101685.06;;;8.14;100.00
9325;BME280;4701;51.566;6.776;2023-02-19T07:04:47;101680.97;;;8.23;100.00
9325;BME280;4701;51.566;6.776;2023-02-19T07:06:49;101687.59;;;8.27;100.00
9325;BME280;4701;51.566;6.776;2023-02-19T07:08:51;101688.66;;;8.26;100.00
9325;BME280;4701;51.566;6.776;2023-02-19T07:10:53;101698.03;;;8.30;100.00
9325;BME280;4701;51.566;6.776;2023-02-19T07:12:56;101696.78;;;8.32;100.00
9325;BME280;4701;51.566;6.776;2023-02-19T07:14:57;101693.56;;;8.35;100.00
9325;BME280;4701;51.566;6.776;2023-02-19T07:16:59;101696.69;;;8.39;100.00
9325;BME280;4701;51.566;6.776;2023-02-19T07:19:02;101698.19;;;8.35;100.00
9325;BME280;4701;51.566;6.776;2023-02-19T07:21:06;101705.13;;;8.49;100.00
9325;BME280;4701;51.566;6.776;2023-02-19T07:23:08;101718.78;;;8.43;100.00
9325;BME280;4701;51.566;6.776;2023-02-19T07:25:10;101724.69;;;8.40;100.00
9325;BME280;4701;51.566;6.776;2023-02-19T07:27:12;101727.31;;;8.46;100.00
9325;BME280;4701;51.566;6.776;2023-02-19T07:29:13;101733.34;;;8.48;100.00
9325;BME280;4701;51.566;6.776;2023-02-19T07:31:17;101733.34;;;8.48;100.00
9325;BME280;4701;51.566;6.776;2023-02-19T07:33:19;101722.78;;;8.58;100.00
9325;BME280;4701;51.566;6.776;2023-02-19T07:35:22;101734.81;;;8.62;100.00
9325;BME280;4701;51.566;6.776;2023-02-19T07:37:24;101736.25;;;8.65;100.00
9325;BME280;4701;51.566;6.776;2023-02-19T07:39:25;101737.31;;;8.64;100.00
9325;BME280;4701;51.566;6.776;2023-02-19T07:41:27;101745.03;;;8.67;100.00
9325;BME280;4701;51.566;6.776;2023-02-19T07:43:33;101744.41;;;8.65;100.00
9325;BME280;4701;51.566;6.776;2023-02-19T07:45:35;101752.25;;;8.73;100.00
9325;BME280;4701;51.566;6.776;2023-02-19T07:47:36;101748.81;;;8.78;100.00
9325;BME280;4701;51.566;6.776;2023-02-19T07:49:38;101752.28;;;8.85;100.00
9325;BME280;4701;51.566;6.776;2023-02-19T07:51:41;101755.63;;;8.68;100.00
9325;BME280;4701;51.566;6.776;2023-02-19T07:53:44;101756.34;;;8.64;100.00
9325;BME280;4701;51.566;6.776;2023-02-19T07:55:46;101763.13;;;8.73;100.00
9325;BME280;4701;51.566;6.776;2023-02-19T07:57:48;101761.69;;;8.70;100.00
9325;BME280;4701;51.566;6.776;2023-02-19T07:59:49;101771.41;;;8.78;100.00
9325;BME280;4701;51.566;6.776;2023-02-19T08:01:52;101780.94;;;8.69;100.00
9325;BME280;4701;51.566;6.776;2023-02-19T08:04:13;101788.72;;;8.84;100.00
9325;BME280;4701;51.566;6.776;2023-02-19T08:06:14;101777.56;;;8.85;100.00
9325;BME280;4701;51.566;6.776;2023-02-19T08:08:18;101785.59;;;8.80;100.00
9325;BME280;4701;51.566;6.776;2023-02-19T08:10:19;101781.97;;;8.86;100.00
9325;BME280;4701;51.566;6.776;2023-02-19T08:12:39;101794.13;;;8.84;100.00
9325;BME280;4701;51.566;6.776;2023-02-19T08:14:58;101783.00;;;8.85;100.00
9325;BME280;4701;51.566;6.776;2023-02-19T08:17:00;101786.13;;;8.89;100.00
9325;BME280;4701;51.566;6.776;2023-02-19T08:19:02;101791.09;;;8.92;100.00
9325;BME280;4701;51.566;6.776;2023-02-19T08:21:04;101788.59;;;8.90;100.00
9325;BME280;4701;51.566;6.776;2023-02-19T08:23:06;101798.88;;;8.88;100.00
9325;BME280;4701;51.566;6.776;2023-02-19T08:25:09;101786.94;;;8.89;100.00
9325;BME280;4701;51.566;6.776;2023-02-19T08:27:11;101795.72;;;8.91;100.00
9325;BME280;4701;51.566;6.776;2023-02-19T08:29:13;101788.06;;;9.00;100.00
9325;BME280;4701;51.566;6.776;2023-02-19T08:31:15;101789.78;;;8.94;100.00
9325;BME280;4701;51.566;6.776;2023-02-19T08:33:18;101799.63;;;8.95;100.00
9325;BME280;4701;51.566;6.776;2023-02-19T08:35:21;101800.34;;;9.02;100.00
9325;BME280;4701;51.566;6.776;2023-02-19T08:37:22;101785.25;;;9.06;100.00
9325;BME280;4701;51.566;6.776;2023-02-19T08:39:24;101797.28;;;8.99;100.00
9325;BME280;4701;51.566;6.776;2023-02-19T08:41:27;101798.38;;;9.09;100.00
9325;BME280;4701;51.566;6.776;2023-02-19T08:43:29;101800.41;;;9.14;100.00
9325;BME280;4701;51.566;6.776;2023-02-19T08:45:31;101795.34;;;9.18;100.00
9325;BME280;4701;51.566;6.776;2023-02-19T08:47:34;101809.63;;;9.13;100.00
9325;BME280;4701;51.566;6.776;2023-02-19T08:49:36;101810.91;;;9.10;100.00
9325;BME280;4701;51.566;6.776;2023-02-19T08:51:38;101804.91;;;9.20;100.00
9325;BME280;4701;51.566;6.776;2023-02-19T08:53:40;101806.78;;;9.20;100.00
9325;BME280;4701;51.566;6.776;2023-02-19T08:55:42;101819.44;;;9.14;100.00
9325;BME280;4701;51.566;6.776;2023-02-19T08:57:45;101816.72;;;9.14;100.00
9325;BME280;4701;51.566;6.776;2023-02-19T08:59:47;101816.50;;;9.16;100.00
9325;BME280;4701;51.566;6.776;2023-02-19T09:01:49;101827.59;;;9.14;100.00
9325;BME280;4701;51.566;6.776;2023-02-19T09:03:52;101829.75;;;9.24;100.00
9325;BME280;4701;51.566;6.776;2023-02-19T09:05:54;101835.56;;;9.27;100.00
9325;BME280;4701;51.566;6.776;2023-02-19T09:07:56;101841.81;;;9.16;100.00
9325;BME280;4701;51.566;6.776;2023-02-19T09:09:59;101839.22;;;9.21;100.00
9325;BME280;4701;51.566;6.776;2023-02-19T09:12:03;101856.22;;;9.17;100.00
9325;BME280;4701;51.566;6.776;2023-02-19T09:14:06;101860.69;;;9.11;100.00
9325;BME280;4701;51.566;6.776;2023-02-19T09:16:08;101857.22;;;9.04;100.00
9325;BME280;4701;51.566;6.776;2023-02-19T09:18:10;101861.16;;;9.08;100.00
9325;BME280;4701;51.566;6.776;2023-02-19T09:20:12;101859.50;;;9.07;100.00
9325;BME280;4701;51.566;6.776;2023-02-19T09:22:14;101873.50;;;8.92;100.00
9325;BME280;4701;51.566;6.776;2023-02-19T09:24:15;101869.13;;;8.91;100.00
9325;BME280;4701;51.566;6.776;2023-02-19T09:26:17;101876.06;;;8.87;100.00
9325;BME280;4701;51.566;6.776;2023-02-19T09:28:19;101878.84;;;8.99;100.00
9325;BME280;4701;51.566;6.776;2023-02-19T09:30:23;101866.22;;;9.04;100.00
9325;BME280;4701;51.566;6.776;2023-02-19T09:32:25;101856.88;;;9.00;100.00
9325;BME280;4701;51.566;6.776;2023-02-19T09:34:27;101860.69;;;9.11;100.00
9325;BME280;4701;51.566;6.776;2023-02-19T09:36:29;101873.53;;;9.04;100.00
9325;BME280;4701;51.566;6.776;2023-02-19T09:38:32;101871.94;;;9.15;100.00
9325;BME280;4701;51.566;6.776;2023-02-19T09:40:35;101877.78;;;9.18;100.00
9325;BME280;4701;51.566;6.776;2023-02-19T09:42:39;101874.47;;;9.28;100.00
9325;BME280;4701;51.566;6.776;2023-02-19T09:44:44;101872.25;;;9.36;100.00
9325;BME280;4701;51.566;6.776;2023-02-19T09:46:50;101879.38;;;9.37;100.00
9325;BME280;4701;51.566;6.776;2023-02-19T09:48:53;101880.94;;;9.45;100.00
9325;BME280;4701;51.566;6.776;2023-02-19T09:50:58;101890.69;;;9.53;100.00
9325;BME280;4701;51.566;6.776;2023-02-19T09:53:09;101894.13;;;9.60;100.00
9325;BME280;4701;51.566;6.776;2023-02-19T09:55:16;101899.91;;;9.63;100.00
9325;BME280;4701;51.566;6.776;2023-02-19T09:57:20;101906.69;;;9.72;100.00
9325;BME280;4701;51.566;6.776;2023-02-19T09:59:24;101912.03;;;9.67;100.00
9325;BME280;4701;51.566;6.776;2023-02-19T10:01:32;101911.53;;;9.59;100.00
9325;BME280;4701;51.566;6.776;2023-02-19T10:03:43;101924.09;;;9.71;100.00
9325;BME280;4701;51.566;6.776;2023-02-19T10:05:47;101952.38;;;9.70;100.00
9325;BME280;4701;51.566;6.776;2023-02-19T10:07:52;101943.47;;;9.63;100.00
9325;BME280;4701;51.566;6.776;2023-02-19T10:09:59;101955.44;;;9.62;100.00
9325;BME280;4701;51.566;6.776;2023-02-19T10:12:12;101941.75;;;9.69;100.00
9325;BME280;4701;51.566;6.776;2023-02-19T10:14:20;101941.38;;;9.65;100.00
9325;BME280;4701;51.566;6.776;2023-02-19T10:16:27;101943.03;;;9.66;100.00
9325;BME280;4701;51.566;6.776;2023-02-19T10:18:35;101958.41;;;9.61;100.00
9325;BME280;4701;51.566;6.776;2023-02-19T10:20:40;101950.59;;;9.64;100.00
9325;BME280;4701;51.566;6.776;2023-02-19T10:22:42;101952.84;;;9.67;100.00
9325;BME280;4701;51.566;6.776;2023-02-19T10:24:45;101964.81;;;9.66;100.00
9325;BME280;4701;51.566;6.776;2023-02-19T10:26:51;101978.41;;;9.66;100.00
9325;BME280;4701;51.566;6.776;2023-02-19T10:28:53;101968.13;;;9.68;100.00
9325;BME280;4701;51.566;6.776;2023-02-19T10:30:57;101971.94;;;9.79;100.00
9325;BME280;4701;51.566;6.776;2023-02-19T10:33:02;101975.53;;;9.91;100.00
9325;BME280;4701;51.566;6.776;2023-02-19T10:35:09;101966.31;;;10.04;100.00
9325;BME280;4701;51.566;6.776;2023-02-19T10:37:15;101975.31;;;9.93;100.00
9325;BME280;4701;51.566;6.776;2023-02-19T10:39:40;101981.59;;;9.93;100.00
9325;BME280;4701;51.566;6.776;2023-02-19T10:41:43;101979.09;;;9.92;100.00
9325;BME280;4701;51.566;6.776;2023-02-19T10:43:53;101982.19;;;9.95;100.00
9325;BME280;4701;51.566;6.776;2023-02-19T10:45:57;101983.38;;;9.99;100.00
9325;BME280;4701;51.566;6.776;2023-02-19T10:48:00;101980.94;;;10.09;100.00
9325;BME280;4701;51.566;6.776;2023-02-19T10:50:02;101974.94;;;10.19;100.00
9325;BME280;4701;51.566;6.776;2023-02-19T10:52:11;101979.47;;;10.37;100.00
9325;BME280;4701;51.566;6.776;2023-02-19T10:54:19;101983.94;;;10.31;100.00
9325;BME280;4701;51.566;6.776;2023-02-19T10:56:26;101992.25;;;10.24;100.00
9325;BME280;4701;51.566;6.776;2023-02-19T10:58:29;101998.75;;;10.23;100.00
9325;BME280;4701;51.566;6.776;2023-02-19T11:00:34;101998.22;;;10.45;100.00
9325;BME280;4701;51.566;6.776;2023-02-19T11:02:35;102000.22;;;10.61;100.00
9325;BME280;4701;51.566;6.776;2023-02-19T11:04:37;102022.38;;;10.65;99.66
9325;BME280;4701;51.566;6.776;2023-02-19T11:06:39;102013.97;;;10.43;100.00
9325;BME280;4701;51.566;6.776;2023-02-19T11:08:53;102009.78;;;10.40;100.00
9325;BME280;4701;51.566;6.776;2023-02-19T11:10:56;102010.75;;;10.34;100.00
9325;BME280;4701;51.566;6.776;2023-02-19T11:13:00;102001.84;;;10.39;100.00
9325;BME280;4701;51.566;6.776;2023-02-19T11:15:20;102012.91;;;10.44;100.00
9325;BME280;4701;51.566;6.776;2023-02-19T11:17:24;102018.09;;;10.34;100.00
9325;BME280;4701;51.566;6.776;2023-02-19T11:19:29;102009.91;;;10.34;100.00
9325;BME280;4701;51.566;6.776;2023-02-19T11:21:32;102020.09;;;10.27;100.00
9325;BME280;4701;51.566;6.776;2023-02-19T11:23:36;102019.25;;;10.26;100.00
9325;BME280;4701;51.566;6.776;2023-02-19T11:25:43;102008.50;;;10.01;100.00
9325;BME280;4701;51.566;6.776;2023-02-19T11:27:55;102002.31;;;9.94;100.00
9325;BME280;4701;51.566;6.776;2023-02-19T11:30:21;102006.00;;;10.00;100.00
9325;BME280;4701;51.566;6.776;2023-02-19T11:32:28;101996.66;;;10.07;100.00
9325;BME280;4701;51.566;6.776;2023-02-19T11:34:30;101997.28;;;10.09;100.00
9325;BME280;4701;51.566;6.776;2023-02-19T11:36:35;101996.34;;;10.15;100.00
9325;BME280;4701;51.566;6.776;2023-02-19T11:38:37;102000.28;;;10.19;100.00
9325;BME280;4701;51.566;6.776;2023-02-19T11:40:43;101999.97;;;10.28;100.00
9325;BME280;4701;51.566;6.776;2023-02-19T11:42:48;101991.06;;;10.32;100.00
9325;BME280;4701;51.566;6.776;2023-02-19T11:45:12;101983.25;;;10.36;100.00
9325;BME280;4701;51.566;6.776;2023-02-19T11:47:52;101994.78;;;10.38;100.00
9325;BME280;4701;51.566;6.776;2023-02-19T11:50:02;101992.34;;;10.30;100.00
9325;BME280;4701;51.566;6.776;2023-02-19T11:52:18;101991.28;;;10.31;100.00
9325;BME280;4701;51.566;6.776;2023-02-19T11:54:39;101987.50;;;10.32;100.00
9325;BME280;4701;51.566;6.776;2023-02-19T11:56:45;101987.50;;;10.32;100.00
9325;BME280;4701;51.566;6.776;2023-02-19T11:58:55;101996.06;;;10.35;100.00
9325;BME280;4701;51.566;6.776;2023-02-19T12:01:04;101993.78;;;10.20;100.00
9325;BME280;4701;51.566;6.776;2023-02-19T12:05:49;101993.72;;;10.09;100.00
9325;BME280;4701;51.566;6.776;2023-02-19T12:08:12;102006.00;;;10.00;100.00
9325;BME280;4701;51.566;6.776;2023-02-19T12:10:23;102011.28;;;9.83;100.00
9325;BME280;4701;51.566;6.776;2023-02-19T12:12:36;102025.75;;;9.65;100.00
9325;BME280;4701;51.566;6.776;2023-02-19T12:14:54;102015.59;;;9.42;100.00
9325;BME280;4701;51.566;6.776;2023-02-19T12:17:05;102019.19;;;9.36;100.00
9325;BME280;4701;51.566;6.776;2023-02-19T12:19:22;102007.88;;;9.39;100.00
9325;BME280;4701;51.566;6.776;2023-02-19T12:21:43;102009.00;;;9.50;100.00
9325;BME280;4701;51.566;6.776;2023-02-19T12:26:21;102013.41;;;9.63;100.00
9325;BME280;4701;51.566;6.776;2023-02-19T12:28:41;102017.50;;;9.72;100.00
9325;BME280;4701;51.566;6.776;2023-02-19T12:31:09;102021.47;;;9.87;100.00
9325;BME280;4701;51.566;6.776;2023-02-19T12:33:34;102010.34;;;9.89;100.00
9325;BME280;4701;51.566;6.776;2023-02-19T12:35:45;102018.88;;;9.93;100.00
9325;BME280;4701;51.566;6.776;2023-02-19T12:37:57;102013.38;;;10.11;100.00
9325;BME280;4701;51.566;6.776;2023-02-19T12:40:14;102012.59;;;10.22;100.00
9325;BME280;4701;51.566;6.776;2023-02-19T12:42:41;102014.03;;;10.24;97.80
9325;BME280;4701;51.566;6.776;2023-02-19T12:44:51;102025.16;;;10.23;97.79
9325;BME280;4701;51.566;6.776;2023-02-19T12:46:58;102020.59;;;10.35;97.14
9325;BME280;4701;51.566;6.776;2023-02-19T12:49:08;102028.13;;;10.21;98.60
9325;BME280;4701;51.566;6.776;2023-02-19T12:51:19;102031.09;;;10.20;96.66
9325;BME280;4701;51.566;6.776;2023-02-19T12:53:30;102020.84;;;10.15;96.23
9325;BME280;4701;51.566;6.776;2023-02-19T12:55:38;102021.78;;;10.09;95.72
9325;BME280;4701;51.566;6.776;2023-02-19T12:57:41;102017.53;;;10.13;96.18
9325;BME280;4701;51.566;6.776;2023-02-19T12:59:47;102021.41;;;10.06;96.63
9325;BME280;4701;51.566;6.776;2023-02-19T13:01:57;102031.81;;;9.97;97.95
9325;BME280;4701;51.566;6.776;2023-02-19T13:04:14;102026.50;;;10.02;98.01
9325;BME280;4701;51.566;6.776;2023-02-19T13:06:25;102025.50;;;9.85;97.05
9325;BME280;4701;51.566;6.776;2023-02-19T13:08:36;102039.13;;;9.97;97.32
9325;BME280;4701;51.566;6.776;2023-02-19T13:10:44;102034.13;;;9.82;97.20
9325;BME280;4701;51.566;6.776;2023-02-19T13:12:48;102036.22;;;9.80;98.92
9325;BME280;4701;51.566;6.776;2023-02-19T13:14:55;102037.06;;;9.80;98.60
9325;BME280;4701;51.566;6.776;2023-02-19T13:17:03;102032.97;;;9.90;98.93
9325;BME280;4701;51.566;6.776;2023-02-19T13:19:10;102039.13;;;9.85;98.39
9325;BME280;4701;51.566;6.776;2023-02-19T13:21:16;102042.03;;;10.02;98.20
9325;BME280;4701;51.566;6.776;2023-02-19T13:23:40;102034.44;;;10.04;98.05
9325;BME280;4701;51.566;6.776;2023-02-19T13:26:18;102032.34;;;9.87;97.51
9325;BME280;4701;51.566;6.776;2023-02-19T13:28:34;102043.41;;;9.93;96.66
9325;BME280;4701;51.566;6.776;2023-02-19T13:30:52;102046.66;;;9.83;96.63
9325;BME280;4701;51.566;6.776;2023-02-19T13:33:02;102044.91;;;9.59;97.20
9325;BME280;4701;51.566;6.776;2023-02-19T13:35:26;102047.94;;;9.51;97.48
9325;BME280;4701;51.566;6.776;2023-02-19T13:37:33;102055.56;;;9.42;97.91
9325;BME280;4701;51.566;6.776;2023-02-19T13:39:36;102068.47;;;9.46;97.83
9325;BME280;4701;51.566;6.776;2023-02-19T13:41:40;102069.53;;;9.45;98.79
9325;BME280;4701;51.566;6.776;2023-02-19T13:43:42;102074.75;;;9.47;100.00
9325;BME280;4701;51.566;6.776;2023-02-19T13:45:46;102071.38;;;9.52;100.00
9325;BME280;4701;51.566;6.776;2023-02-19T13:47:59;102077.47;;;9.47;100.00
9325;BME280;4701;51.566;6.776;2023-02-19T13:50:05;102074.53;;;9.48;100.00
9325;BME280;4701;51.566;6.776;2023-02-19T13:52:40;102068.88;;;9.50;100.00
9325;BME280;4701;51.566;6.776;2023-02-19T13:54:42;102080.16;;;9.35;100.00
9325;BME280;4701;51.566;6.776;2023-02-19T13:56:44;102078.84;;;9.38;100.00
9325;BME280;4701;51.566;6.776;2023-02-19T13:58:56;102088.84;;;9.44;100.00
9325;BME280;4701;51.566;6.776;2023-02-19T14:01:01;102097.06;;;9.37;100.00
9325;BME280;4701;51.566;6.776;2023-02-19T14:03:26;102094.72;;;9.41;100.00
9325;BME280;4701;51.566;6.776;2023-02-19T14:05:55;102099.47;;;9.45;100.00
9325;BME280;4701;51.566;6.776;2023-02-19T14:07:59;102095.34;;;9.43;100.00
9325;BME280;4701;51.566;6.776;2023-02-19T14:10:03;102106.59;;;9.46;100.00
9325;BME280;4701;51.566;6.776;2023-02-19T14:12:18;102106.06;;;9.38;100.00
9325;BME280;4701;51.566;6.776;2023-02-19T14:14:27;102106.13;;;9.49;100.00
9325;BME280;4701;51.566;6.776;2023-02-19T14:16:32;102104.25;;;9.50;100.00
9325;BME280;4701;51.566;6.776;2023-02-19T14:18:49;102111.13;;;9.34;100.00
9325;BME280;4701;51.566;6.776;2023-02-19T14:21:06;102113.22;;;9.32;100.00
9325;BME280;4701;51.566;6.776;2023-02-19T14:23:15;102112.63;;;9.30;100.00
9325;BME280;4701;51.566;6.776;2023-02-19T14:27:58;102112.53;;;9.37;100.00
9325;BME280;4701;51.566;6.776;2023-02-19T14:30:02;102117.47;;;9.46;100.00
9325;BME280;4701;51.566;6.776;2023-02-19T14:32:05;102120.94;;;9.54;98.58
9325;BME280;4701;51.566;6.776;2023-02-19T14:34:14;102129.81;;;9.49;96.45
9325;BME280;4701;51.566;6.776;2023-02-19T14:36:31;102120.19;;;9.46;98.05
9325;BME280;4701;51.566;6.776;2023-02-19T14:38:38;102111.66;;;9.43;96.67
9325;BME280;4701;51.566;6.776;2023-02-19T14:40:44;102123.81;;;9.40;96.91
9325;BME280;4701;51.566;6.776;2023-02-19T14:42:47;102111.28;;;9.39;97.77
9325;BME280;4701;51.566;6.776;2023-02-19T14:44:52;102119.13;;;9.29;98.43
9325;BME280;4701;51.566;6.776;2023-02-19T14:46:58;102117.44;;;9.28;98.61
9325;BME280;4701;51.566;6.776;2023-02-19T14:49:06;102118.97;;;9.24;98.74
9325;BME280;4701;51.566;6.776;2023-02-19T14:51:23;102111.13;;;9.34;98.42
9325;BME280;4701;51.566;6.776;2023-02-19T14:53:27;102117.16;;;9.18;98.82
9325;BME280;4701;51.566;6.776;2023-02-19T14:55:33;102112.06;;;9.22;99.91
9325;BME280;4701;51.566;6.776;2023-02-19T14:57:38;102116.25;;;9.24;99.03
9325;BME280;4701;51.566;6.776;2023-02-19T14:59:51;102098.69;;;9.20;97.36
9325;BME280;4701;51.566;6.776;2023-02-19T15:01:56;102099.53;;;9.21;98.17
9325;BME280;4701;51.566;6.776;2023-02-19T15:03:58;102101.81;;;9.24;97.98
9325;BME280;4701;51.566;6.776;2023-02-19T15:06:04;102098.78;;;9.32;98.02
9325;BME280;4701;51.566;6.776;2023-02-19T15:08:08;102094.81;;;9.34;97.64
9325;BME280;4701;51.566;6.776;2023-02-19T15:10:13;102097.81;;;9.26;98.82
9325;BME280;4701;51.566;6.776;2023-02-19T15:12:20;102092.59;;;9.25;97.96
9325;BME280;4701;51.566;6.776;2023-02-19T15:14:23;102087.28;;;9.30;98.65
9325;BME280;4701;51.566;6.776;2023-02-19T15:16:31;102072.09;;;9.22;97.18
9325;BME280;4701;51.566;6.776;2023-02-19T15:18:36;102066.75;;;9.16;97.05
9325;BME280;4701;51.566;6.776;2023-02-19T15:20:40;102067.56;;;9.16;97.97
9325;BME280;4701;51.566;6.776;2023-02-19T15:22:43;102073.00;;;9.16;97.81
9325;BME280;4701;51.566;6.776;2023-02-19T15:24:45;102063.56;;;9.19;98.33
9325;BME280;4701;51.566;6.776;2023-02-19T15:26:49;102054.69;;;9.05;97.40
9325;BME280;4701;51.566;6.776;2023-02-19T15:29:00;102052.28;;;8.97;96.94
9325;BME280;4701;51.566;6.776;2023-02-19T15:31:05;102058.41;;;8.92;96.88
9325;BME280;4701;51.566;6.776;2023-02-19T15:33:15;102058.78;;;8.96;97.07
9325;BME280;4701;51.566;6.776;2023-02-19T15:35:19;102053.50;;;9.01;96.72
9325;BME280;4701;51.566;6.776;2023-02-19T15:37:23;102053.78;;;8.93;94.90
9325;BME280;4701;51.566;6.776;2023-02-19T15:39:29;102050.00;;;8.94;95.24
9325;BME280;4701;51.566;6.776;2023-02-19T15:41:33;102048.66;;;9.03;94.66
9325;BME280;4701;51.566;6.776;2023-02-19T15:43:40;102056.59;;;9.04;94.20
9325;BME280;4701;51.566;6.776;2023-02-19T15:45:45;102061.19;;;9.04;94.93
9325;BME280;4701;51.566;6.776;2023-02-19T15:47:50;102063.59;;;8.94;93.39
9325;BME280;4701;51.566;6.776;2023-02-19T15:49:57;102066.28;;;9.00;94.11
9325;BME280;4701;51.566;6.776;2023-02-19T15:52:07;102068.38;;;8.98;93.76
9325;BME280;4701;51.566;6.776;2023-02-19T15:54:17;102069.22;;;8.99;94.62
9325;BME280;4701;51.566;6.776;2023-02-19T15:56:24;102077.66;;;8.91;94.42
9325;BME280;4701;51.566;6.776;2023-02-19T15:58:31;102074.66;;;8.99;93.33
9325;BME280;4701;51.566;6.776;2023-02-19T16:00:39;102081.22;;;8.91;94.05
9325;BME280;4701;51.566;6.776;2023-02-19T16:02:43;102082.75;;;8.81;94.15
9325;BME280;4701;51.566;6.776;2023-02-19T16:04:46;102092.38;;;8.83;94.16
9325;BME280;4701;51.566;6.776;2023-02-19T16:06:53;102088.69;;;8.71;93.90
9325;BME280;4701;51.566;6.776;2023-02-19T16:09:00;102090.13;;;8.73;92.52
9325;BME280;4701;51.566;6.776;2023-02-19T16:11:05;102098.34;;;8.67;93.02
9325;BME280;4701;51.566;6.776;2023-02-19T16:13:10;102106.09;;;8.63;93.04
9325;BME280;4701;51.566;6.776;2023-02-19T16:15:12;102115.94;;;8.64;93.28
9325;BME280;4701;51.566;6.776;2023-02-19T16:17:17;102116.16;;;8.63;93.30
9325;BME280;4701;51.566;6.776;2023-02-19T16:19:23;102108.41;;;8.60;92.60
9325;BME280;4701;51.566;6.776;2023-02-19T16:21:26;102115.94;;;8.64;93.27
9325;BME280;4701;51.566;6.776;2023-02-19T16:23:28;102113.06;;;8.53;92.35
9325;BME280;4701;51.566;6.776;2023-02-19T16:25:34;102110.16;;;8.54;93.21
9325;BME280;4701;51.566;6.776;2023-02-19T16:27:39;102096.81;;;8.46;93.46
9325;BME280;4701;51.566;6.776;2023-02-19T16:29:49;102103.97;;;8.41;93.28
9325;BME280;4701;51.566;6.776;2023-02-19T16:31:54;102100.59;;;8.45;93.41
9325;BME280;4701;51.566;6.776;2023-02-19T16:34:15;102101.44;;;8.46;94.82
9325;BME280;4701;51.566;6.776;2023-02-19T16:36:24;102130.84;;;8.55;94.25
9325;BME280;4701;51.566;6.776;2023-02-19T16:38:34;102128.59;;;8.46;94.54
9325;BME280;4701;51.566;6.776;2023-02-19T16:41:14;102143.28;;;8.38;95.55
9325;BME280;4701;51.566;6.776;2023-02-19T16:43:25;102141.78;;;8.42;95.87
9325;BME280;4701;51.566;6.776;2023-02-19T16:45:27;102153.72;;;8.34;96.92
9325;BME280;4701;51.566;6.776;2023-02-19T16:47:31;102170.50;;;8.25;96.71
9325;BME280;4701;51.566;6.776;2023-02-19T16:49:33;102165.44;;;8.28;97.43
9325;BME280;4701;51.566;6.776;2023-02-19T16:51:36;102164.66;;;8.21;97.38
9325;BME280;4701;51.566;6.776;2023-02-19T16:53:38;102172.38;;;8.24;97.17
9325;BME280;4701;51.566;6.776;2023-02-19T16:55:40;102172.97;;;8.26;97.34
9325;BME280;4701;51.566;6.776;2023-02-19T16:57:41;102185.34;;;8.22;97.91
9325;BME280;4701;51.566;6.776;2023-02-19T16:59:44;102188.69;;;8.24;98.42
9325;BME280;4701;51.566;6.776;2023-02-19T17:01:45;102201.19;;;8.25;98.46
9325;BME280;4701;51.566;6.776;2023-02-19T17:03:50;102200.00;;;8.15;98.61
9325;BME280;4701;51.566;6.776;2023-02-19T17:05:52;102201.84;;;8.21;99.32
9325;BME280;4701;51.566;6.776;2023-02-19T17:07:55;102198.94;;;8.16;99.18
9325;BME280;4701;51.566;6.776;2023-02-19T17:09:57;102200.41;;;8.12;100.00
9325;BME280;4701;51.566;6.776;2023-02-19T17:11:59;102197.06;;;8.10;100.00
9325;BME280;4701;51.566;6.776;2023-02-19T17:14:01;102200.25;;;8.07;100.00
9325;BME280;4701;51.566;6.776;2023-02-19T17:16:03;102198.13;;;8.09;100.00
9325;BME280;4701;51.566;6.776;2023-02-19T17:18:06;102205.47;;;8.02;100.00
9325;BME280;4701;51.566;6.776;2023-02-19T17:20:18;102205.47;;;8.02;100.00
9325;BME280;4701;51.566;6.776;2023-02-19T17:22:22;102214.88;;;7.99;100.00
9325;BME280;4701;51.566;6.776;2023-02-19T17:24:26;102205.88;;;8.05;100.00
9325;BME280;4701;51.566;6.776;2023-02-19T17:26:29;102216.75;;;8.05;100.00
9325;BME280;4701;51.566;6.776;2023-02-19T17:28:32;102204.22;;;7.97;100.00
9325;BME280;4701;51.566;6.776;2023-02-19T17:30:34;102201.97;;;7.88;100.00
9325;BME280;4701;51.566;6.776;2023-02-19T17:32:35;102199.25;;;7.88;100.00
9325;BME280;4701;51.566;6.776;2023-02-19T17:34:37;102197.75;;;7.92;100.00
9325;BME280;4701;51.566;6.776;2023-02-19T17:36:39;102200.91;;;7.89;100.00
9325;BME280;4701;51.566;6.776;2023-02-19T17:38:42;102195.91;;;7.86;100.00
9325;BME280;4701;51.566;6.776;2023-02-19T17:40:45;102195.69;;;7.87;100.00
9325;BME280;4701;51.566;6.776;2023-02-19T17:42:47;102203.00;;;7.87;100.00
9325;BME280;4701;51.566;6.776;2023-02-19T17:44:49;102199.44;;;7.93;100.00
9325;BME280;4701;51.566;6.776;2023-02-19T17:46:52;102200.94;;;7.82;100.00
9325;BME280;4701;51.566;6.776;2023-02-19T17:48:54;102197.16;;;7.83;100.00
9325;BME280;4701;51.566;6.776;2023-02-19T17:50:56;102208.66;;;7.79;100.00
9325;BME280;4701;51.566;6.776;2023-02-19T17:52:58;102216.41;;;7.69;100.00
9325;BME280;4701;51.566;6.776;2023-02-19T17:55:00;102223.31;;;7.65;100.00
9325;BME280;4701;51.566;6.776;2023-02-19T17:57:03;102235.41;;;7.49;100.00
9325;BME280;4701;51.566;6.776;2023-02-19T17:59:05;102242.31;;;7.25;100.00
9325;BME280;4701;51.566;6.776;2023-02-19T18:01:07;102247.31;;;7.15;100.00
9325;BME280;4701;51.566;6.776;2023-02-19T18:03:09;102251.47;;;6.91;100.00
9325;BME280;4701;51.566;6.776;2023-02-19T18:05:11;102250.22;;;7.00;100.00
9325;BME280;4701;51.566;6.776;2023-02-19T18:07:13;102249.59;;;6.92;100.00
9325;BME280;4701;51.566;6.776;2023-02-19T18:09:15;102257.06;;;6.90;100.00
9325;BME280;4701;51.566;6.776;2023-02-19T18:11:20;102261.25;;;6.79;100.00
9325;BME280;4701;51.566;6.776;2023-02-19T18:13:23;102252.28;;;6.85;100.00
9325;BME280;4701;51.566;6.776;2023-02-19T18:15:25;102252.69;;;6.82;100.00
9325;BME280;4701;51.566;6.776;2023-02-19T18:17:27;102251.19;;;6.73;100.00
9325;BME280;4701;51.566;6.776;2023-02-19T18:19:29;102252.28;;;6.72;100.00
9325;BME280;4701;51.566;6.776;2023-02-19T18:21:31;102257.06;;;6.76;100.00
9325;BME280;4701;51.566;6.776;2023-02-19T18:23:33;102268.53;;;6.78;100.00
9325;BME280;4701;51.566;6.776;2023-02-19T18:25:35;102268.31;;;6.73;100.00
9325;BME280;4701;51.566;6.776;2023-02-19T18:27:37;102265.63;;;6.80;100.00
9325;BME280;4701;51.566;6.776;2023-02-19T18:29:41;102271.84;;;6.74;100.00